METAR Data
IDs: Format: Raw Decoded Include TAF

Data at: 2008 UTC 17 Nov 2019

KSTJ 171953Z 34011KT 10SM OVC040 11/02 A2996 RMK AO2 SLP148 T01060022
KSTJ 171853Z 35009KT 10SM OVC037 11/03 A2997 RMK AO2 SLP151 T01060033
KSTJ 171753Z 35014KT 10SM FEW022 OVC037 10/04 A3000 RMK AO2 SLP159 T01000039 10100 20067 58004
KSTJ 171745Z 35014KT 10SM FEW022 OVC037 10/04 A3000 RMK AO2 T01000039
KSTJ 171707Z 33009KT 10SM BKN020 OVC030 09/04 A3001 RMK AO2 T00940044
KSTJ 171653Z 34009KT 10SM SCT020 OVC030 09/04 A3001 RMK AO2 SLP165 T00890044
KSTJ 171553Z 32012G20KT 10SM OVC016 08/04 A3001 RMK AO2 SLP165 T00830039
KSTJ 171453Z 31011KT 10SM OVC017 08/04 A2999 RMK AO2 SLP159 T00780039 53009
KSTJ 171429Z 29008KT 10SM BKN018 OVC075 07/03 A3000 RMK AO2 T00720033
KSTJ 171353Z AUTO 32007KT 10SM BKN075 OVC090 07/03 A2998 RMK AO2 SLP152 T00720033
KSTJ 171253Z AUTO 31009KT 10SM SCT060 BKN095 BKN120 07/02 A2997 RMK AO2 SLP151 T00670017
KSTJ 171153Z AUTO 27005KT 10SM CLR 07/00 A2997 RMK AO2 SLP149 T00720000 10083 20056 55003
KSTJ 171053Z AUTO 20003KT 10SM CLR 07/M01 A2996 RMK AO2 SLP148 T00671006
KSTJ 170953Z AUTO 21005KT 10SM FEW120 07/M01 A2998 RMK AO2 SLP152 T00721006
KSTJ 170853Z AUTO 20008KT 10SM CLR 08/M01 A2998 RMK AO2 SLP151 T00781011 56017
KSTJ 170753Z AUTO 19005KT 10SM CLR 07/M01 A2998 RMK AO2 SLP152 T00671011
KSTJ 170653Z AUTO 16006KT 10SM CLR 07/M02 A3000 RMK AO2 SLP161 T00721022
KSTJ 170553Z AUTO 15005KT 10SM CLR 07/M02 A3003 RMK AO2 SLP169 T00671022 10094 20056 401501039 58007
KSTJ 170453Z AUTO 14004KT 10SM CLR 07/M02 A3004 RMK AO2 SLP175 T00671017
KSTJ 170353Z AUTO 15003KT 10SM CLR 06/M02 A3006 RMK AO2 SLP181 T00611022
KSTJ 170253Z AUTO 15005KT 10SM CLR 07/M02 A3005 RMK AO2 SLP179 T00721017 51011
KSTJ 170153Z AUTO 16005KT 10SM CLR 09/M02 A3005 RMK AO2 SLP178 T00891022
KSTJ 170053Z AUTO 16007KT 10SM CLR 09/M02 A3003 RMK AO2 SLP173 T00891017
KSTJ 162353Z 13007KT 10SM CLR 09/M02 A3002 RMK AO2 SLP169 T00941022 10150 20094 56010
KSTJ 162253Z 13009KT 10SM CLR 11/M03 A3002 RMK AO2 SLP170 T01111028
KSTJ 162153Z 15010KT 10SM CLR 13/M03 A3003 RMK AO2 SLP174 T01281028
KSTJ 162053Z 16011KT 10SM CLR 15/M03 A3005 RMK AO2 SLP178 T01501028 56032
KSTJ 161953Z 14011G18KT 10SM CLR 15/M03 A3007 RMK AO2 SLP184 T01501028
KSTJ 161853Z 15012KT 10SM CLR 14/M03 A3010 RMK AO2 SLP195 T01391033
KSTJ 161753Z 16011G22KT 10SM CLR 12/M03 A3014 RMK AO2 SLP212 T01221028 10122 21022 58028
KSTJ 161653Z 18010KT 10SM CLR 11/M03 A3019 RMK AO2 SLP227 T01061033
KSTJ 161553Z 16009KT 10SM CLR 08/M04 A3021 RMK AO2 SLP234 T00781044
KSTJ 161453Z 16009KT 10SM CLR 04/M05 A3023 RMK AO2 SLP241 T00441050 58004
KSTJ 161353Z 13003KT 10SM CLR 01/M06 A3024 RMK AO2 SLP246 T00111056
KSTJ 161253Z AUTO 14004KT 10SM CLR 00/M06 A3024 RMK AO2 SLP247 T00001061
KSTJ 161153Z AUTO 00000KT 10SM CLR M02/M06 A3024 RMK AO2 SLP247 T10221061 10006 21039 57007
KSTJ 161053Z AUTO 15003KT 10SM CLR 01/M06 A3025 RMK AO2 SLP246 T00061056
KSTJ 160953Z AUTO 10SM CLR M03/M06 A3026 RMK AO2 SLP250 T10281056
KSTJ 160853Z AUTO 10SM CLR M03/M06 A3026 RMK AO2 SLP252 T10281056 56008